Details From KFRG - REPUBLIC
To KBID - Block Island State
Flight Number -
Tags generated
Created
Modified
Stats Distance 87 nm / 162 km
Max Altitude 0 ft / 0 m
Waypoints 3
Social Downloads 0
Likes 0
Share

Download

Looking for another format? Having issues loading an existing format? Contact us
Advertisement - Login to hide

Notes

Basic altitude profile: - Ascent Rate: 800ft/min - Ascent Speed: 85kts - Cruise Altitude: 4000ft - Cruise Speed: 105kts - Descent Rate: 500ft/min - Descent Speed: 70kts Options: - Use NATs: yes - Use PACOTS: yes - Use low airways: yes - Use high airways: yes

Route

KFRG SEY KBID

ID Type Via Altitude (ft/m) Position (lat/lon) Dist (leg/tot) Name
O KFRG APT - 0 / 0 40.72883 / -73.41351 - / 0 nm REPUBLIC
SEY DME - 0 / 0 41.16744 / -71.57609 87 / 87 nm SANDY POINT VOR-DME
O KBID APT - 0 / 0 41.16814 / -71.57761 0 / 87 nm Block Island State

Altitude Profile

Advertisement - Login to hide

KFRG

Details ICAO KFRG (FRG)
Name Farmingdale Republic
Region United States
Timezone America/New_York (UTC-5.0)
Stats Elevation 80 ft / 24 m (AMSL)
Location 40.728800° -73.413500°
Runways 2
Magnetic Variation 13.041° W

METAR

KFRG 031053Z AUTO 19010KT 10SM OVC041 12/10 A3024 RMK AO2 SLP240 T01220100

Decode

TAF

Not found

Departure Runways

ID Width Length Bearing (true/mag) Surface Threshold Overrun Markings Lighting
01 150 ft / 46 m 5,533 ft / 1,687 m 359.18° / 12.22° ASPHALT 0 ft / 0 m 387 ft / 118 m APP CENTERLINE EDGE THRESHOLD MALSF
14 151 ft / 46 m 6,832 ft / 2,082 m 132.36° / 145.40° ASPHALT 0 ft / 0 m 417 ft / 127 m PREC-APP CENTERLINE EDGE THRESHOLD MALSF
19 150 ft / 46 m 5,533 ft / 1,687 m 179.18° / 192.22° ASPHALT 0 ft / 0 m 705 ft / 215 m APP CENTERLINE EDGE THRESHOLD MALSF
32 151 ft / 46 m 6,832 ft / 2,082 m 312.37° / 325.41° ASPHALT 0 ft / 0 m 430 ft / 131 m APP CENTERLINE EDGE THRESHOLD MALSF

KBID

Details ICAO KBID (BID)
Name Block Island State
Region United States
Timezone America/New_York (UTC-5.0)
Stats Elevation 107 ft / 33 m (AMSL)
Location 41.168100° -71.577600°
Runways 1
Magnetic Variation 13.900° W

METAR

KBID 031056Z AUTO 19013KT 10SM BKN038 OVC055 12/10 A3028 RMK AO2 SLP255 T01220100

Decode

TAF

Not found

Destination Runways

ID Width Length Bearing (true/mag) Surface Threshold Overrun Markings Lighting
10 98 ft / 30 m 2,506 ft / 764 m 83.74° / 97.64° ASPHALT 0 ft / 0 m 0 ft / 0 m APP EDGE THRESHOLD MALSF
28 98 ft / 30 m 2,506 ft / 764 m 263.75° / 277.65° ASPHALT 0 ft / 0 m 0 ft / 0 m APP EDGE THRESHOLD RAIL REIL-OMNI

Popular Alternatives